Аэропорт: Бухта Провидения. Провидения

ICAO: UHMD

METAR:
2019/01/21 23:00
UHMD 212300Z 02007MPS 9999 DRSN SCT033 M20/M24 Q1015 RMK QFE760/1014
METAR:
Информация по данной станции не доступна